createdAt,value
2023-02-06T00:00:50.202Z,7.50
2023-02-06T00:03:18.029Z,6.05
2023-02-06T00:06:00.059Z,7.00
2023-02-06T00:08:27.939Z,6.90
2023-02-06T00:10:55.958Z,5.15
2023-02-06T00:13:23.276Z,6.15
2023-02-06T00:15:50.570Z,7.03
2023-02-06T00:18:17.943Z,6.00
2023-02-06T00:20:45.149Z,5.40
2023-02-06T00:23:12.469Z,6.45
2023-02-06T00:25:39.804Z,5.70
2023-02-06T00:28:07.095Z,6.45
2023-02-06T00:30:34.413Z,5.63
2023-02-06T00:33:01.691Z,6.70
2023-02-06T00:35:29.074Z,6.50
2023-02-06T00:37:56.691Z,5.72
2023-02-06T00:40:24.025Z,5.80
2023-02-06T00:42:51.180Z,5.60
2023-02-06T00:45:18.446Z,6.20
2023-02-06T00:47:45.729Z,7.00
2023-02-06T00:50:12.964Z,6.70
2023-02-06T00:52:40.309Z,6.22
2023-02-06T00:55:07.799Z,5.95
2023-02-06T00:57:35.116Z,5.45
2023-02-06T01:00:04.467Z,4.97
2023-02-06T01:02:31.896Z,5.97
2023-02-06T01:04:59.269Z,5.75
2023-02-06T01:07:26.964Z,6.20
2023-02-06T01:09:54.273Z,6.75
2023-02-06T01:12:21.758Z,5.70
2023-02-06T01:14:49.239Z,6.35
2023-02-06T01:17:16.615Z,6.70
2023-02-06T01:19:44.553Z,5.65
2023-02-06T01:22:11.796Z,6.88
2023-02-06T01:24:39.010Z,7.10
2023-02-06T01:27:06.416Z,5.93
2023-02-06T01:29:33.739Z,7.43
2023-02-06T01:32:01.070Z,7.20
2023-02-06T01:34:28.323Z,5.88
2023-02-06T01:36:55.700Z,6.03
2023-02-06T01:39:22.907Z,7.85
2023-02-06T01:41:51.111Z,5.65
2023-02-06T01:44:24.331Z,6.07
2023-02-06T01:46:54.951Z,6.28
2023-02-06T01:49:30.972Z,6.53
2023-02-06T01:52:31.173Z,6.15
2023-02-06T01:55:01.367Z,7.18
2023-02-06T01:57:29.500Z,7.35
2023-02-06T01:59:59.980Z,5.97
2023-02-06T02:02:30.024Z,6.20
2023-02-06T02:07:31.954Z,6.68
2023-02-06T02:09:59.615Z,7.95
2023-02-06T02:12:28.374Z,5.43
2023-02-06T02:14:57.069Z,6.00
2023-02-06T02:17:33.333Z,6.47
2023-02-06T02:20:15.883Z,6.97
2023-02-06T02:22:58.750Z,5.47
2023-02-06T02:26:02.993Z,7.70
2023-02-06T02:28:53.893Z,7.20
2023-02-06T02:31:39.089Z,6.00
2023-02-06T02:34:33.187Z,7.50
2023-02-06T02:37:11.031Z,7.43
2023-02-06T02:39:50.284Z,7.22
2023-02-06T02:42:27.929Z,7.43
2023-02-06T02:45:10.490Z,9.00
2023-02-06T02:48:07.704Z,8.55
2023-02-06T02:50:35.799Z,9.95
2023-02-06T02:53:05.118Z,10.02
2023-02-06T02:55:32.494Z,9.30
2023-02-06T03:00:37.273Z,8.50
2023-02-06T03:03:08.444Z,7.43
2023-02-06T03:05:37.538Z,8.45
2023-02-06T03:08:20.253Z,8.45
2023-02-06T03:11:09.627Z,7.53
2023-02-06T03:14:06.025Z,6.68
2023-02-06T03:16:37.647Z,7.75
2023-02-06T03:19:09.627Z,8.35
2023-02-06T03:21:40.004Z,7.72
2023-02-06T03:24:29.534Z,6.90
2023-02-06T03:26:59.659Z,6.88
2023-02-06T03:29:29.663Z,8.18
2023-02-06T03:32:06.298Z,9.25
2023-02-06T03:35:15.133Z,7.55
2023-02-06T03:37:42.834Z,7.15
2023-02-06T03:40:11.266Z,7.13
2023-02-06T03:42:41.423Z,6.88
2023-02-06T03:45:37.579Z,7.82
2023-02-06T03:48:29.935Z,7.43
2023-02-06T03:50:59.733Z,8.98
2023-02-06T03:53:27.385Z,7.53
2023-02-06T03:55:58.570Z,9.02
2023-02-06T03:58:26.190Z,7.07
2023-02-06T04:00:53.801Z,7.22
2023-02-06T04:03:21.530Z,7.97
2023-02-06T04:05:49.017Z,7.57
2023-02-06T04:08:16.614Z,8.13
2023-02-06T04:10:43.927Z,7.55
2023-02-06T04:13:11.234Z,8.38
2023-02-06T04:15:38.618Z,7.13
2023-02-06T04:18:06.239Z,7.22
2023-02-06T04:20:33.750Z,7.38
2023-02-06T04:23:00.962Z,7.90
2023-02-06T04:25:28.252Z,8.18
2023-02-06T04:27:55.576Z,7.32
2023-02-06T04:30:22.892Z,7.70
2023-02-06T04:32:50.215Z,8.80
2023-02-06T04:35:17.877Z,6.68
2023-02-06T04:37:45.144Z,7.25
2023-02-06T04:40:12.853Z,7.60
2023-02-06T04:42:43.631Z,7.15
2023-02-06T04:45:10.918Z,7.05
2023-02-06T04:47:38.682Z,7.15
2023-02-06T04:50:06.321Z,7.03
2023-02-06T04:52:33.511Z,6.75
2023-02-06T04:55:00.758Z,7.55
2023-02-06T04:57:28.131Z,7.43
2023-02-06T04:59:55.347Z,6.85
2023-02-06T05:02:22.670Z,6.80
2023-02-06T05:04:51.907Z,6.80
2023-02-06T05:07:19.765Z,6.57
2023-02-06T05:09:47.280Z,7.28
2023-02-06T05:12:14.547Z,6.97
2023-02-06T05:14:41.822Z,7.43
2023-02-06T05:17:09.197Z,6.68
2023-02-06T05:19:36.643Z,6.75
2023-02-06T05:22:04.113Z,6.82
2023-02-06T05:24:31.449Z,8.18
2023-02-06T05:26:58.819Z,7.25
2023-02-06T05:29:26.151Z,6.15
2023-02-06T05:31:54.092Z,6.85
2023-02-06T05:34:21.314Z,6.18
2023-02-06T05:36:48.593Z,6.68
2023-02-06T05:39:15.840Z,6.90
2023-02-06T05:41:43.060Z,7.00
2023-02-06T05:44:11.048Z,7.10
2023-02-06T05:46:38.403Z,6.88
2023-02-06T05:49:05.947Z,6.93
2023-02-06T05:51:33.244Z,8.50
2023-02-06T05:54:00.605Z,7.38
2023-02-06T05:56:27.865Z,7.00
2023-02-06T05:58:55.185Z,7.57
2023-02-06T06:01:22.477Z,7.10
2023-02-06T06:03:49.946Z,7.63
2023-02-06T06:06:17.362Z,6.75
2023-02-06T06:08:44.651Z,7.28
2023-02-06T06:11:12.813Z,7.72
2023-02-06T06:13:40.796Z,6.18
2023-02-06T06:16:08.273Z,7.70
2023-02-06T06:18:35.826Z,7.85
2023-02-06T06:21:05.499Z,7.57
2023-02-06T06:23:33.074Z,6.85
2023-02-06T06:26:00.421Z,7.25
2023-02-06T06:28:27.782Z,8.30
2023-02-06T06:31:03.010Z,6.82
2023-02-06T06:33:30.417Z,5.90
2023-02-06T06:35:58.421Z,8.45
2023-02-06T06:38:27.550Z,7.68
2023-02-06T06:40:54.829Z,7.75
2023-02-06T06:43:22.305Z,7.57
2023-02-06T06:45:49.518Z,7.20
2023-02-06T06:48:16.830Z,6.47
2023-02-06T06:50:44.262Z,6.78
2023-02-06T06:53:11.559Z,7.45
2023-02-06T06:55:38.810Z,6.90
2023-02-06T06:58:06.077Z,6.38
2023-02-06T07:00:33.455Z,7.65
2023-02-06T07:03:00.768Z,8.48
2023-02-06T07:05:28.112Z,7.78
2023-02-06T07:07:55.392Z,7.40
2023-02-06T07:10:22.735Z,6.72
2023-02-06T07:12:53.707Z,9.02
2023-02-06T07:15:20.960Z,6.90
2023-02-06T07:17:48.186Z,6.97
2023-02-06T07:20:15.942Z,8.02
2023-02-06T07:22:43.325Z,9.05
2023-02-06T07:25:10.646Z,7.70
2023-02-06T07:27:37.878Z,7.13
2023-02-06T07:30:06.611Z,6.45
2023-02-06T07:32:37.018Z,8.15
2023-02-06T07:35:05.240Z,7.07
2023-02-06T07:37:32.828Z,8.60
2023-02-06T07:40:00.132Z,11.60
2023-02-06T07:42:27.738Z,7.43
2023-02-06T07:45:00.318Z,7.28
2023-02-06T07:47:27.489Z,8.02
2023-02-06T07:49:54.786Z,7.30
2023-02-06T07:52:22.413Z,8.27
2023-02-06T07:54:49.673Z,7.88
2023-02-06T07:57:17.401Z,7.35
2023-02-06T07:59:44.743Z,7.45
2023-02-06T08:02:12.623Z,8.13
2023-02-06T08:04:40.113Z,8.57
2023-02-06T08:07:09.865Z,8.70
2023-02-06T08:09:37.139Z,8.38
2023-02-06T08:12:04.521Z,8.88
2023-02-06T08:14:32.693Z,7.28
2023-02-06T08:17:00.334Z,9.10
2023-02-06T08:19:27.545Z,8.25
2023-02-06T08:21:54.885Z,8.85
2023-02-06T08:24:22.133Z,8.27
2023-02-06T08:26:49.651Z,10.60
2023-02-06T08:29:17.059Z,9.15
2023-02-06T08:31:44.411Z,9.68
2023-02-06T08:34:13.969Z,8.57
2023-02-06T08:36:43.452Z,8.68
2023-02-06T08:39:13.576Z,7.68
2023-02-06T08:41:42.468Z,8.32
2023-02-06T08:44:13.363Z,8.43
2023-02-06T08:46:40.803Z,9.18
2023-02-06T08:49:12.561Z,8.73
2023-02-06T08:51:39.998Z,9.02
2023-02-06T08:54:10.846Z,8.90
2023-02-06T08:56:38.795Z,8.48
2023-02-06T08:59:07.506Z,9.23
2023-02-06T09:01:36.298Z,9.05
2023-02-06T09:04:06.631Z,10.18
2023-02-06T09:06:40.594Z,9.23
2023-02-06T09:09:09.845Z,8.07
2023-02-06T09:11:37.702Z,8.23
2023-02-06T09:14:06.241Z,8.65
2023-02-06T09:16:34.511Z,8.95
2023-02-06T09:19:02.797Z,9.70
2023-02-06T09:21:32.595Z,8.35
2023-02-06T09:26:31.167Z,8.98
2023-02-06T09:29:00.422Z,10.20
2023-02-06T09:31:32.837Z,10.40
2023-02-06T09:34:01.246Z,9.40
2023-02-06T09:36:30.309Z,10.25
2023-02-06T09:38:59.595Z,10.70
2023-02-06T09:41:26.844Z,9.77
2023-02-06T09:44:07.015Z,10.07
2023-02-06T09:46:36.544Z,9.60
2023-02-06T09:49:12.038Z,10.27
2023-02-06T09:52:11.242Z,9.27
2023-02-06T09:54:44.637Z,12.43
2023-02-06T09:57:21.931Z,9.75
2023-02-06T09:59:54.027Z,9.07
2023-02-06T10:02:30.451Z,9.15
2023-02-06T10:05:32.065Z,9.80
2023-02-06T10:08:08.836Z,9.32
2023-02-06T10:10:44.014Z,9.43
2023-02-06T10:13:24.166Z,9.32
2023-02-06T10:15:55.337Z,9.85
2023-02-06T10:18:32.877Z,9.88
2023-02-06T10:21:12.837Z,9.32
2023-02-06T10:23:47.480Z,9.60
2023-02-06T10:26:19.118Z,9.60
2023-02-06T10:28:52.319Z,9.45
2023-02-06T10:31:33.386Z,9.27
2023-02-06T10:34:20.596Z,9.45
2023-02-06T10:36:57.078Z,8.20
2023-02-06T10:39:30.892Z,10.75
2023-02-06T10:42:10.678Z,10.02
2023-02-06T10:44:51.282Z,10.43
2023-02-06T10:47:54.337Z,9.27
2023-02-06T10:50:30.153Z,10.65
2023-02-06T10:53:01.310Z,9.80
2023-02-06T10:55:42.200Z,10.25
2023-02-06T10:58:29.317Z,10.60
2023-02-06T11:00:58.599Z,9.13
2023-02-06T11:03:30.642Z,10.60
2023-02-06T11:05:59.483Z,9.75
2023-02-06T11:08:34.663Z,11.20
2023-02-06T11:11:32.398Z,10.55
2023-02-06T11:14:25.237Z,9.25
2023-02-06T11:16:53.468Z,9.68
2023-02-06T11:19:34.091Z,9.20
2023-02-06T11:22:04.632Z,8.98
2023-02-06T11:24:32.092Z,9.65
2023-02-06T11:27:02.251Z,9.80
2023-02-06T11:29:37.305Z,9.57
2023-02-06T11:32:06.749Z,9.30
2023-02-06T11:34:52.461Z,10.80
2023-02-06T11:37:37.920Z,10.93
2023-02-06T11:40:18.910Z,9.32
2023-02-06T11:42:48.191Z,11.15
2023-02-06T11:45:30.844Z,9.32
2023-02-06T11:47:58.822Z,9.93
2023-02-06T11:50:30.308Z,9.70
2023-02-06T11:53:19.452Z,9.60
2023-02-06T11:56:13.845Z,9.63
2023-02-06T11:58:41.136Z,7.82
2023-02-06T12:01:19.175Z,11.60
2023-02-06T12:03:58.432Z,10.40
2023-02-06T12:06:43.879Z,9.90
2023-02-06T12:09:13.653Z,9.15
2023-02-06T12:11:53.047Z,9.77
2023-02-06T12:14:33.433Z,8.32
2023-02-06T12:17:03.114Z,8.80
2023-02-06T12:19:47.273Z,9.13
2023-02-06T12:22:18.972Z,8.77
2023-02-06T12:24:48.975Z,8.98
2023-02-06T12:27:39.244Z,10.82
2023-02-06T12:30:26.531Z,9.60
2023-02-06T12:33:04.107Z,9.30
2023-02-06T12:35:43.769Z,9.73
2023-02-06T12:38:44.012Z,9.65
2023-02-06T12:41:28.985Z,8.43
2023-02-06T12:44:33.806Z,9.23
2023-02-06T12:47:14.432Z,7.85
2023-02-06T12:49:55.193Z,8.43
2023-02-06T12:52:31.810Z,9.55
2023-02-06T12:55:35.564Z,8.45
2023-02-06T12:58:04.642Z,8.07
2023-02-06T13:00:54.040Z,8.85
2023-02-06T13:03:28.867Z,8.32
2023-02-06T13:06:03.002Z,8.50
2023-02-06T13:08:47.103Z,7.57
2023-02-06T13:11:32.529Z,8.65
2023-02-06T13:14:02.450Z,10.82
2023-02-06T13:16:42.528Z,8.20
2023-02-06T13:19:32.365Z,7.72
2023-02-06T13:22:13.472Z,7.35
2023-02-06T13:24:42.037Z,7.57
2023-02-06T13:27:09.348Z,7.57
2023-02-06T13:29:38.902Z,7.88
2023-02-06T13:32:12.498Z,8.18
2023-02-06T13:34:44.189Z,7.00
2023-02-06T13:37:38.058Z,7.13
2023-02-06T13:40:23.851Z,6.70
2023-02-06T13:42:56.918Z,6.97
2023-02-06T13:45:29.000Z,6.72
2023-02-06T13:48:08.745Z,6.22
2023-02-06T13:51:14.078Z,7.57
2023-02-06T13:54:19.179Z,5.90
2023-02-06T13:56:46.801Z,6.57
2023-02-06T13:59:19.142Z,6.03
2023-02-06T14:01:46.840Z,6.60
2023-02-06T14:04:20.041Z,7.22
2023-02-06T14:07:23.024Z,6.85
2023-02-06T14:10:38.465Z,6.43
2023-02-06T14:13:45.088Z,5.72
2023-02-06T14:16:33.667Z,6.18
2023-02-06T14:19:22.662Z,5.97
2023-02-06T14:22:08.275Z,5.90
2023-02-06T14:25:07.225Z,6.25
2023-02-06T14:27:44.780Z,5.90
2023-02-06T14:30:49.009Z,5.80
2023-02-06T14:33:31.318Z,5.15
2023-02-06T14:36:23.836Z,5.57
2023-02-06T14:39:40.900Z,5.25
2023-02-06T14:42:32.794Z,5.60
2023-02-06T14:45:04.696Z,6.05
2023-02-06T14:47:51.311Z,5.32
2023-02-06T14:50:23.301Z,4.78
2023-02-06T14:52:58.928Z,5.95
2023-02-06T14:55:35.697Z,4.35
2023-02-06T14:58:13.101Z,4.82
2023-02-06T15:00:40.598Z,4.57
2023-02-06T15:03:15.368Z,4.95
2023-02-06T15:05:43.974Z,4.97
2023-02-06T15:08:19.547Z,4.28
2023-02-06T15:10:47.504Z,5.07
2023-02-06T15:13:23.273Z,4.07
2023-02-06T15:15:56.647Z,4.13
2023-02-06T15:18:24.392Z,3.58
2023-02-06T15:20:58.568Z,2.97
2023-02-06T15:23:53.571Z,2.60
2023-02-06T15:26:32.100Z,3.13
2023-02-06T15:29:01.859Z,3.97
2023-02-06T15:31:29.479Z,3.70
2023-02-06T15:34:00.742Z,3.83
2023-02-06T15:36:33.837Z,3.83
2023-02-06T15:39:02.021Z,4.10
2023-02-06T15:41:31.260Z,4.00
2023-02-06T15:44:04.572Z,3.70
2023-02-06T15:46:32.018Z,3.70
2023-02-06T15:48:59.597Z,3.85
2023-02-06T15:51:29.502Z,3.80
2023-02-06T15:54:15.533Z,4.15
2023-02-06T15:56:43.601Z,4.30
2023-02-06T15:59:24.127Z,3.58
2023-02-06T16:01:52.925Z,4.20
2023-02-06T16:04:28.461Z,3.53
2023-02-06T16:07:10.603Z,3.35
2023-02-06T16:09:44.942Z,3.65
2023-02-06T16:12:13.356Z,3.50
2023-02-06T16:14:41.953Z,3.70
2023-02-06T16:17:15.450Z,3.50
2023-02-06T16:19:48.472Z,3.30
2023-02-06T16:22:24.595Z,2.80
2023-02-06T16:24:55.002Z,2.70
2023-02-06T16:27:27.909Z,3.40
2023-02-06T16:29:56.657Z,2.63
2023-02-06T16:32:25.138Z,3.63
2023-02-06T16:34:52.778Z,3.15
2023-02-06T16:37:25.861Z,3.28
2023-02-06T16:39:53.783Z,3.35
2023-02-06T16:42:23.721Z,3.63
2023-02-06T16:44:53.425Z,3.60
2023-02-06T16:47:21.573Z,3.40
2023-02-06T16:49:49.612Z,4.10
2023-02-06T16:52:22.482Z,3.60
2023-02-06T16:54:49.997Z,3.60
2023-02-06T16:57:29.332Z,4.53
2023-02-06T16:59:56.933Z,5.20
2023-02-06T17:02:25.901Z,3.55
2023-02-06T17:04:53.317Z,3.55
2023-02-06T17:07:25.287Z,3.50
2023-02-06T17:09:54.406Z,5.00
2023-02-06T17:12:22.597Z,3.67
2023-02-06T17:14:49.921Z,3.47
2023-02-06T17:17:20.216Z,3.53
2023-02-06T17:19:48.565Z,3.22
2023-02-06T17:22:16.117Z,3.85
2023-02-06T17:24:43.968Z,3.28
2023-02-06T17:27:17.976Z,4.03
2023-02-06T17:29:47.465Z,3.42
2023-02-06T17:32:16.304Z,4.13
2023-02-06T17:34:43.592Z,4.00
2023-02-06T17:37:20.581Z,4.13
2023-02-06T17:39:52.109Z,4.07
2023-02-06T17:42:19.623Z,3.88
2023-02-06T17:44:46.841Z,4.00
2023-02-06T17:47:14.088Z,4.00
2023-02-06T17:49:41.329Z,3.83
2023-02-06T17:52:08.545Z,4.55
2023-02-06T17:54:35.856Z,4.25
2023-02-06T17:57:03.310Z,4.43
2023-02-06T17:59:30.693Z,4.72
2023-02-06T18:01:59.373Z,5.05
2023-02-06T18:04:27.831Z,4.50
2023-02-06T18:06:55.078Z,4.53
2023-02-06T18:09:22.302Z,4.65
2023-02-06T18:11:49.769Z,4.40
2023-02-06T18:14:17.072Z,4.93
2023-02-06T18:16:45.575Z,4.22
2023-02-06T18:19:13.201Z,4.72
2023-02-06T18:21:40.435Z,4.43
2023-02-06T18:24:08.022Z,5.05
2023-02-06T18:26:35.572Z,5.10
2023-02-06T18:29:05.117Z,5.15
2023-02-06T18:31:34.008Z,4.60
2023-02-06T18:34:03.374Z,4.72
2023-02-06T18:36:30.776Z,4.82
2023-02-06T18:38:58.103Z,4.78
2023-02-06T18:41:44.045Z,5.53
2023-02-06T18:44:12.004Z,5.15
2023-02-06T18:46:39.559Z,4.85
2023-02-06T18:49:06.988Z,4.75
2023-02-06T18:51:34.262Z,4.82
2023-02-06T18:54:01.609Z,4.93
2023-02-06T18:56:29.082Z,4.95
2023-02-06T18:58:56.363Z,4.90
2023-02-06T19:01:24.667Z,5.75
2023-02-06T19:03:53.298Z,5.35
2023-02-06T19:06:28.921Z,5.45
2023-02-06T19:08:56.941Z,5.50
2023-02-06T19:11:24.503Z,5.63
2023-02-06T19:13:51.855Z,5.30
2023-02-06T19:16:20.252Z,6.47
2023-02-06T19:18:48.911Z,6.18
2023-02-06T19:21:18.932Z,6.13
2023-02-06T19:26:15.809Z,5.60
2023-02-06T19:28:43.787Z,6.10
2023-02-06T19:31:12.499Z,6.03
2023-02-06T19:33:41.303Z,6.57
2023-02-06T19:36:16.077Z,5.63
2023-02-06T19:38:44.236Z,5.75
2023-02-06T19:41:18.996Z,7.85
2023-02-06T19:43:47.334Z,6.35
2023-02-06T19:46:16.121Z,6.22
2023-02-06T19:48:45.543Z,6.40
2023-02-06T19:51:15.330Z,7.22
2023-02-06T19:53:45.765Z,7.22
2023-02-06T19:56:26.185Z,7.57
2023-02-06T19:58:57.302Z,6.07
2023-02-06T20:01:25.090Z,6.32
2023-02-06T20:03:53.042Z,6.72
2023-02-06T20:06:20.344Z,8.02
2023-02-06T20:08:47.932Z,7.72
2023-02-06T20:11:18.580Z,7.90
2023-02-06T20:13:47.346Z,8.60
2023-02-06T20:16:17.342Z,7.53
2023-02-06T20:18:45.200Z,7.90
2023-02-06T20:21:27.922Z,7.18
2023-02-06T20:23:58.118Z,7.45
2023-02-06T20:26:27.764Z,7.07
2023-02-06T20:28:55.264Z,7.13
2023-02-06T20:31:23.070Z,6.63
2023-02-06T20:33:50.457Z,5.97
2023-02-06T20:36:24.277Z,6.35
2023-02-06T20:38:53.877Z,6.80
2023-02-06T20:41:23.287Z,6.55
2023-02-06T20:43:50.744Z,6.32
2023-02-06T20:46:18.147Z,7.07
2023-02-06T20:48:46.964Z,6.80
2023-02-06T20:51:14.786Z,6.88
2023-02-06T20:53:42.109Z,7.00
2023-02-06T20:56:14.546Z,6.82
2023-02-06T20:58:43.024Z,6.80
2023-02-06T21:01:19.590Z,7.38
2023-02-06T21:03:47.228Z,6.63
2023-02-06T21:06:15.197Z,6.80
2023-02-06T21:08:42.900Z,7.07
2023-02-06T21:11:10.289Z,6.63
2023-02-06T21:13:40.033Z,7.10
2023-02-06T21:16:08.516Z,6.70
2023-02-06T21:18:36.355Z,7.22
2023-02-06T21:21:09.533Z,6.90
2023-02-06T21:23:41.894Z,6.82
2023-02-06T21:26:10.551Z,7.45
2023-02-06T21:28:38.548Z,6.60
2023-02-06T21:31:09.945Z,6.57
2023-02-06T21:33:37.782Z,6.97
2023-02-06T21:36:07.664Z,6.85
2023-02-06T21:38:36.140Z,6.78
2023-02-06T21:41:12.103Z,7.40
2023-02-06T21:43:39.556Z,7.68
2023-02-06T21:46:07.068Z,8.52
2023-02-06T21:48:35.304Z,7.40
2023-02-06T21:51:16.696Z,8.63
2023-02-06T21:53:45.379Z,5.95
2023-02-06T21:56:18.337Z,7.03
2023-02-06T21:58:46.226Z,6.47
2023-02-06T22:01:26.359Z,6.60
2023-02-06T22:03:54.461Z,6.82
2023-02-06T22:06:21.785Z,7.55
2023-02-06T22:08:54.181Z,7.15
2023-02-06T22:11:24.166Z,6.43
2023-02-06T22:13:52.113Z,6.57
2023-02-06T22:16:27.384Z,6.63
2023-02-06T22:18:55.742Z,7.15
2023-02-06T22:21:26.356Z,7.07
2023-02-06T22:23:56.425Z,6.95
2023-02-06T22:28:51.239Z,6.90
2023-02-06T22:31:23.802Z,7.05
2023-02-06T22:33:51.733Z,7.32
2023-02-06T22:36:23.247Z,7.68
2023-02-06T22:38:56.144Z,7.40
2023-02-06T22:41:23.483Z,7.13
2023-02-06T22:43:51.704Z,7.30
2023-02-06T22:46:34.011Z,7.57
2023-02-06T22:49:01.694Z,6.97
2023-02-06T22:51:29.136Z,7.15
2023-02-06T22:53:56.645Z,7.88
2023-02-06T22:56:27.130Z,7.50
2023-02-06T22:58:56.585Z,7.47
2023-02-06T23:01:25.571Z,8.27
2023-02-06T23:03:54.156Z,8.80
2023-02-06T23:06:21.731Z,8.40
2023-02-06T23:08:49.239Z,8.88
2023-02-06T23:11:16.784Z,8.93
2023-02-06T23:13:44.052Z,8.10
2023-02-06T23:16:12.001Z,8.52
2023-02-06T23:18:39.346Z,8.57
2023-02-06T23:21:11.945Z,8.57
2023-02-06T23:23:39.947Z,8.20
2023-02-06T23:26:10.296Z,8.25
2023-02-06T23:28:38.227Z,8.45
2023-02-06T23:31:06.182Z,9.23
2023-02-06T23:33:33.858Z,8.63
2023-02-06T23:36:10.845Z,9.77
2023-02-06T23:38:39.073Z,8.43
2023-02-06T23:41:11.088Z,8.07
2023-02-06T23:43:39.270Z,8.15
2023-02-06T23:46:10.350Z,8.40
2023-02-06T23:48:39.710Z,8.55
2023-02-06T23:51:07.513Z,7.95
2023-02-06T23:53:34.997Z,8.38
2023-02-06T23:56:08.892Z,8.00
2023-02-06T23:58:36.165Z,8.15
